Time;durP1;ratioP1;P1;durP2;ratioP2;P2;SDS_P1;SDS_P2;PMS_P1;PMS_P2;Temp;Humidity;BMP_temperature;BMP_pressure;BME280_temperature;BME280_humidity;BME280_pressure;Samples;Min_cycle;Max_cycle;Signal;HPM_P1;HPM_P2
2021/08/13 00:02:22;;;;;;;0.47;0.47;;;21.50;99.90;;;;;;4964467;28;20100;-92
2021/08/13 00:04:48;;;;;;;0.00;0.00;;;21.50;99.90;;;;;;4958097;28;20761;-91
2021/08/13 00:07:13;;;;;;;0.77;0.77;;;21.50;99.90;;;;;;4969943;28;20061;-93
2021/08/13 00:09:40;;;;;;;2.88;1.45;;;21.40;99.90;;;;;;4967924;28;20325;-90
2021/08/13 00:12:06;;;;;;;0.82;0.60;;;21.40;99.90;;;;;;4965696;28;20057;-93
2021/08/13 00:14:32;;;;;;;1.13;0.73;;;21.40;99.90;;;;;;4966223;28;20457;-92
2021/08/13 00:16:58;;;;;;;3.42;1.15;;;21.50;99.90;;;;;;4963386;28;20051;-92
2021/08/13 00:19:24;;;;;;;0.47;0.47;;;21.60;99.90;;;;;;4969972;28;20454;-89
2021/08/13 00:21:50;;;;;;;0.20;0.20;;;21.50;99.90;;;;;;4967804;28;20573;-92
2021/08/13 00:24:16;;;;;;;2.23;1.10;;;21.40;99.90;;;;;;4941471;28;20309;-90
2021/08/13 00:26:42;;;;;;;2.13;0.88;;;21.30;99.90;;;;;;4935452;28;20022;-93
2021/08/13 00:29:08;;;;;;;0.50;0.50;;;21.30;99.90;;;;;;4962017;28;20056;-93
2021/08/13 00:31:34;;;;;;;0.40;0.40;;;21.20;99.90;;;;;;4961773;28;20834;-93
2021/08/13 00:34:00;;;;;;;1.87;1.13;;;21.10;99.90;;;;;;4941414;29;21251;-93
2021/08/13 00:36:25;;;;;;;0.57;0.57;;;21.00;99.90;;;;;;4954291;28;20118;-93
2021/08/13 00:38:51;;;;;;;0.23;0.23;;;20.90;99.90;;;;;;4935159;29;20043;-92
2021/08/13 00:41:17;;;;;;;1.60;0.50;;;20.90;99.90;;;;;;4948834;29;20502;-94
2021/08/13 00:43:42;;;;;;;10.15;1.48;;;20.90;99.90;;;;;;4948855;29;20114;-92
2021/08/13 00:46:08;;;;;;;0.70;0.70;;;20.80;99.90;;;;;;4930355;29;20031;-92
2021/08/13 00:48:34;;;;;;;0.53;0.53;;;20.80;99.90;;;;;;4939643;28;20028;-92
2021/08/13 00:51:00;;;;;;;0.40;0.40;;;20.70;99.90;;;;;;4931578;29;20043;-91
2021/08/13 00:53:26;;;;;;;0.80;0.73;;;20.70;99.90;;;;;;4928775;29;20499;-93
2021/08/13 00:55:52;;;;;;;1.55;0.82;;;20.70;99.90;;;;;;4922253;29;20062;-92
2021/08/13 00:58:19;;;;;;;0.52;0.52;;;20.60;99.90;;;;;;4943943;29;20799;-92
2021/08/13 01:00:45;;;;;;;0.68;0.65;;;20.60;99.90;;;;;;4928016;29;20035;-93
2021/08/13 01:03:12;;;;;;;0.50;0.50;;;20.60;99.90;;;;;;4955654;28;20508;-93
2021/08/13 01:05:38;;;;;;;3.50;1.63;;;20.60;99.90;;;;;;4941020;28;20062;-93
2021/08/13 01:08:03;;;;;;;4.40;2.07;;;20.60;99.90;;;;;;4962293;28;20063;-93
2021/08/13 01:10:33;;;;;;;0.43;0.38;;;20.60;99.90;;;;;;4937862;28;20617;-91
2021/08/13 01:13:24;;;;;;;1.95;0.85;;;20.80;99.90;;;;;;4934559;29;20032;-93
2021/08/13 01:15:56;;;;;;;0.20;0.20;;;20.90;99.90;;;;;;4941026;29;20081;-92
2021/08/13 01:18:31;;;;;;;2.05;0.68;;;21.00;99.90;;;;;;4948183;29;20576;-92
2021/08/13 01:21:02;;;;;;;0.77;0.52;;;21.10;99.90;;;;;;4933854;28;20102;-91
2021/08/13 01:23:34;;;;;;;0.40;0.40;;;21.20;99.90;;;;;;4943589;28;20051;-92
2021/08/13 01:26:03;;;;;;;1.27;1.17;;;21.30;99.90;;;;;;4951698;28;20043;-91
2021/08/13 01:28:36;;;;;;;0.88;0.80;;;21.30;99.90;;;;;;4961884;28;20031;-94
2021/08/13 01:31:11;;;;;;;1.58;0.60;;;21.30;99.90;;;;;;4951090;28;20062;-94
2021/08/13 01:33:39;;;;;;;0.40;0.40;;;21.50;99.90;;;;;;4955210;28;20035;-91
2021/08/13 01:36:08;;;;;;;0.98;0.98;;;21.60;99.90;;;;;;4959319;28;20066;-93
2021/08/13 01:38:36;;;;;;;1.00;0.80;;;21.50;99.90;;;;;;4951816;28;20035;-93
2021/08/13 01:41:04;;;;;;;0.30;0.30;;;21.60;99.90;;;;;;4965493;28;20082;-93
2021/08/13 01:43:31;;;;;;;2.20;1.50;;;21.60;99.90;;;;;;4965572;28;20283;-94
2021/08/13 01:45:58;;;;;;;0.50;0.45;;;21.60;99.90;;;;;;4955633;28;20037;-94
2021/08/13 01:48:26;;;;;;;0.35;0.35;;;21.60;99.90;;;;;;4966952;28;20066;-94
2021/08/13 01:50:53;;;;;;;0.35;0.17;;;21.70;99.90;;;;;;4966998;28;20045;-94
2021/08/13 01:53:21;;;;;;;0.75;0.75;;;21.70;99.90;;;;;;4969279;28;20485;-93
2021/08/13 01:55:47;;;;;;;0.50;0.50;;;21.80;99.90;;;;;;4966224;28;20031;-93
2021/08/13 01:58:14;;;;;;;1.45;1.35;;;21.70;99.90;;;;;;4965018;28;20031;-93
2021/08/13 02:00:40;;;;;;;0.60;0.60;;;21.60;99.90;;;;;;4964871;28;20034;-93
2021/08/13 02:03:07;;;;;;;0.50;0.50;;;21.60;99.90;;;;;;4960061;28;20433;-91
2021/08/13 02:05:35;;;;;;;1.73;0.60;;;21.70;99.90;;;;;;4964217;28;20038;-92
2021/08/13 02:08:05;;;;;;;2.17;1.95;;;21.70;99.90;;;;;;4971362;28;20041;-92
2021/08/13 02:10:32;;;;;;;0.40;0.40;;;21.60;99.90;;;;;;4963810;28;20067;-92
2021/08/13 02:12:58;;;;;;;0.77;0.75;;;21.60;99.90;;;;;;4962672;28;20050;-92
2021/08/13 02:15:23;;;;;;;0.40;0.30;;;21.60;99.90;;;;;;4965540;28;20694;-93
2021/08/13 02:18:06;;;;;;;0.30;0.30;;;21.60;99.90;;;;;;4969689;28;20034;-93
2021/08/13 02:20:35;;;;;;;0.80;0.80;;;21.60;99.90;;;;;;4963524;28;20119;-92
2021/08/13 02:23:00;;;;;;;0.35;0.35;;;21.60;99.90;;;;;;4971317;28;20867;-92
2021/08/13 02:25:27;;;;;;;1.57;1.17;;;21.70;99.90;;;;;;4970787;28;20035;-90
2021/08/13 02:27:52;;;;;;;0.32;0.32;;;21.70;99.90;;;;;;4970992;28;20115;-92
2021/08/13 02:30:18;;;;;;;1.00;0.63;;;21.70;99.90;;;;;;4967095;28;20466;-91
2021/08/13 02:32:45;;;;;;;1.23;1.13;;;21.70;99.90;;;;;;4967695;28;20502;-92
2021/08/13 02:35:11;;;;;;;0.75;0.75;;;21.70;99.90;;;;;;4968845;28;20542;-91
2021/08/13 02:37:42;;;;;;;0.88;0.70;;;21.60;99.90;;;;;;4967211;28;20026;-92
2021/08/13 02:40:10;;;;;;;2.80;1.33;;;21.70;99.90;;;;;;4962976;28;20043;-92
2021/08/13 02:42:44;;;;;;;0.40;0.40;;;21.70;99.90;;;;;;4965312;28;20026;-92
2021/08/13 02:45:13;;;;;;;0.20;0.20;;;21.60;99.90;;;;;;4965185;28;20898;-92
2021/08/13 02:47:40;;;;;;;0.73;0.73;;;21.60;99.90;;;;;;4965221;28;20507;-91
2021/08/13 02:50:08;;;;;;;0.20;0.20;;;21.60;99.90;;;;;;4961382;28;20573;-92
2021/08/13 02:52:46;;;;;;;1.55;0.88;;;21.60;99.90;;;;;;4962076;28;20616;-91
2021/08/13 02:55:19;;;;;;;0.82;0.60;;;21.60;99.90;;;;;;4957498;28;20039;-92
2021/08/13 02:57:50;;;;;;;1.65;1.20;;;21.60;99.90;;;;;;4959402;28;20046;-92
2021/08/13 03:00:16;;;;;;;1.25;0.98;;;21.70;99.90;;;;;;4955738;28;20463;-91
2021/08/13 03:02:42;;;;;;;0.68;0.57;;;21.60;99.90;;;;;;4960512;28;20026;-91
2021/08/13 03:05:09;;;;;;;1.45;0.93;;;21.60;99.90;;;;;;4969398;28;20461;-91
2021/08/13 03:07:37;;;;;;;0.32;0.32;;;21.60;99.90;;;;;;4970166;28;20022;-91
2021/08/13 03:10:03;;;;;;;0.57;0.57;;;21.60;99.90;;;;;;4980313;28;20038;-91
2021/08/13 03:12:30;;;;;;;5.22;0.70;;;21.60;99.90;;;;;;4962959;28;20026;-92
2021/08/13 03:14:58;;;;;;;0.35;0.35;;;21.60;99.90;;;;;;4958480;28;20584;-92
2021/08/13 03:17:24;;;;;;;0.90;0.90;;;21.60;99.90;;;;;;4963843;28;20019;-92
2021/08/13 03:19:50;;;;;;;2.50;1.02;;;21.60;99.90;;;;;;4960768;28;20035;-90
2021/08/13 03:22:19;;;;;;;0.77;0.77;;;21.60;99.90;;;;;;4957995;28;20494;-93
2021/08/13 03:24:46;;;;;;;3.47;1.50;;;21.60;99.90;;;;;;4947958;29;20303;-93
2021/08/13 03:27:12;;;;;;;1.10;0.85;;;21.60;99.90;;;;;;4952271;28;20029;-93
2021/08/13 03:29:37;;;;;;;0.88;0.60;;;21.70;99.90;;;;;;4952040;29;20035;-92
2021/08/13 03:32:04;;;;;;;1.97;1.83;;;21.70;99.90;;;;;;4926971;29;20900;-92
2021/08/13 03:34:30;;;;;;;0.38;0.38;;;21.70;99.90;;;;;;4957112;28;20565;-93
2021/08/13 03:36:57;;;;;;;0.55;0.45;;;21.60;99.90;;;;;;4959977;28;20129;-91
2021/08/13 03:39:24;;;;;;;2.90;1.50;;;21.50;99.90;;;;;;4935683;28;20034;-92
2021/08/13 03:41:50;;;;;;;0.85;0.85;;;21.50;99.90;;;;;;4934870;28;20039;-91
2021/08/13 03:44:15;;;;;;;1.10;1.05;;;21.40;99.90;;;;;;4947689;29;20090;-93
2021/08/13 03:46:41;;;;;;;0.57;0.57;;;21.30;99.90;;;;;;4930751;29;20490;-92
2021/08/13 03:49:07;;;;;;;1.97;1.30;;;21.30;99.90;;;;;;4934869;29;20058;-93
2021/08/13 03:51:33;;;;;;;;;;;21.30;99.90;;;;;;4947034;29;20031;-93
2021/08/13 03:53:59;;;;;;;2.70;0.85;;;21.30;99.90;;;;;;4928827;28;20292;-94
2021/08/13 03:56:25;;;;;;;4.13;1.67;;;21.30;99.90;;;;;;4954140;28;20050;-93
2021/08/13 03:58:51;;;;;;;1.13;1.03;;;21.30;99.90;;;;;;4929329;29;20042;-93
2021/08/13 04:01:16;;;;;;;1.73;1.20;;;21.30;99.90;;;;;;4956779;28;20079;-92
2021/08/13 04:03:42;;;;;;;0.53;0.50;;;21.30;99.90;;;;;;4934336;29;20294;-93
2021/08/13 04:06:08;;;;;;;0.38;0.38;;;21.30;99.90;;;;;;4937339;28;20027;-93
2021/08/13 04:08:33;;;;;;;4.17;1.23;;;21.40;99.90;;;;;;4945297;29;20058;-92
2021/08/13 04:10:59;;;;;;;5.17;1.27;;;21.40;99.90;;;;;;4932930;29;20043;-93
2021/08/13 04:13:25;;;;;;;0.73;0.73;;;21.40;99.90;;;;;;4966681;28;20512;-93
2021/08/13 04:15:51;;;;;;;1.53;1.43;;;21.30;99.90;;;;;;4947988;28;20114;-93
2021/08/13 04:18:17;;;;;;;1.52;0.70;;;21.40;99.90;;;;;;4950267;29;20069;-92
2021/08/13 04:20:43;;;;;;;0.30;0.30;;;21.40;99.90;;;;;;4954809;28;20517;-90
2021/08/13 04:23:08;;;;;;;1.52;0.47;;;21.40;99.90;;;;;;4953467;28;20047;-93
2021/08/13 04:25:34;;;;;;;1.60;0.70;;;21.40;99.90;;;;;;4961729;28;20461;-93
2021/08/13 04:28:00;;;;;;;0.67;0.67;;;21.40;99.90;;;;;;4971078;28;20027;-94
2021/08/13 04:30:25;;;;;;;0.40;0.40;;;21.40;99.90;;;;;;4962992;28;20046;-92
2021/08/13 04:32:51;;;;;;;0.30;0.30;;;21.40;99.90;;;;;;4963553;28;20035;-92
2021/08/13 04:35:17;;;;;;;1.30;0.80;;;21.40;99.90;;;;;;4965341;28;20066;-91
2021/08/13 04:37:43;;;;;;;0.50;0.50;;;21.40;99.90;;;;;;4959170;28;20082;-92
2021/08/13 04:40:09;;;;;;;0.80;0.80;;;21.40;99.90;;;;;;4966766;28;20792;-93
2021/08/13 04:42:35;;;;;;;;;;;21.30;99.90;;;;;;4965223;28;20035;-92
2021/08/13 04:45:01;;;;;;;2.88;0.88;;;21.30;99.90;;;;;;4965874;28;19918;-92
2021/08/13 04:47:27;;;;;;;1.15;0.98;;;21.40;99.90;;;;;;4969985;28;20023;-94
2021/08/13 04:49:52;;;;;;;0.73;0.73;;;21.30;99.90;;;;;;4971499;28;20484;-94
2021/08/13 04:52:20;;;;;;;0.70;0.50;;;21.30;99.90;;;;;;4968942;28;20293;-96
2021/08/13 04:54:47;;;;;;;4.25;2.15;;;21.30;99.90;;;;;;4972068;28;20022;-95
2021/08/13 04:57:13;;;;;;;0.88;0.80;;;21.30;99.90;;;;;;4973776;28;20041;-95
2021/08/13 04:59:39;;;;;;;0.30;0.30;;;21.30;99.90;;;;;;4972992;28;20023;-92
2021/08/13 05:02:04;;;;;;;3.67;0.90;;;21.30;99.90;;;;;;4968877;28;20035;-94
2021/08/13 05:04:30;;;;;;;0.90;0.90;;;21.30;99.90;;;;;;4969793;28;20085;-91
2021/08/13 05:06:56;;;;;;;1.27;0.83;;;21.20;99.90;;;;;;4958886;28;20037;-92
2021/08/13 05:09:21;;;;;;;0.70;0.70;;;21.20;99.90;;;;;;4961184;28;20039;-92
2021/08/13 05:11:50;;;;;;;2.40;1.27;;;21.20;99.90;;;;;;4968092;28;20421;-93
2021/08/13 05:14:15;;;;;;;1.20;1.10;;;21.10;99.90;;;;;;4970147;28;20528;-94
2021/08/13 05:16:41;;;;;;;0.38;0.38;;;21.30;99.90;;;;;;4971410;28;20121;-95
2021/08/13 05:19:07;;;;;;;1.50;0.80;;;21.30;99.90;;;;;;4969978;28;20030;-94
2021/08/13 05:21:37;;;;;;;2.95;1.05;;;21.10;99.90;;;;;;4967409;28;20031;-94
2021/08/13 05:24:04;;;;;;;4.75;2.08;;;21.10;99.90;;;;;;4972985;28;20074;-91
2021/08/13 05:26:29;;;;;;;3.53;1.48;;;21.20;99.90;;;;;;4961396;28;20061;-84
2021/08/13 05:28:55;;;;;;;1.13;1.00;;;21.20;99.90;;;;;;4961872;28;20039;-85
2021/08/13 05:31:21;;;;;;;2.47;1.27;;;21.10;99.90;;;;;;4963456;28;20129;-84
2021/08/13 05:33:46;;;;;;;2.47;1.80;;;21.00;99.90;;;;;;4962224;28;20066;-84
2021/08/13 05:36:15;;;;;;;1.60;0.87;;;21.30;99.90;;;;;;4964307;28;20062;-84
2021/08/13 05:38:41;;;;;;;1.20;1.13;;;21.40;99.90;;;;;;4961710;28;20619;-84
2021/08/13 05:41:07;;;;;;;2.57;1.00;;;21.20;99.90;;;;;;4966260;28;20035;-85
2021/08/13 05:43:33;;;;;;;2.63;1.57;;;21.20;99.90;;;;;;4968144;28;20794;-84
2021/08/13 05:45:58;;;;;;;0.83;0.83;;;21.10;99.90;;;;;;4965374;28;20057;-84
2021/08/13 05:48:24;;;;;;;6.17;1.90;;;21.10;99.90;;;;;;4961049;28;20278;-85
2021/08/13 05:50:49;;;;;;;1.93;1.20;;;21.20;99.90;;;;;;4955365;28;20039;-84
2021/08/13 05:53:15;;;;;;;1.20;1.00;;;21.30;99.90;;;;;;4963637;28;20054;-84
2021/08/13 05:55:41;;;;;;;1.17;1.07;;;21.30;99.90;;;;;;4961711;28;20067;-84
2021/08/13 05:58:06;;;;;;;1.13;1.13;;;21.30;99.90;;;;;;4966240;28;20062;-84
2021/08/13 06:00:32;;;;;;;1.50;1.40;;;21.10;99.90;;;;;;4966148;28;20034;-83
2021/08/13 06:03:00;;;;;;;1.47;0.77;;;21.20;99.90;;;;;;4966042;28;20035;-85
2021/08/13 06:05:26;;;;;;;2.47;2.25;;;21.10;99.90;;;;;;4963553;28;20061;-84
2021/08/13 06:07:53;;;;;;;1.35;0.50;;;21.00;99.90;;;;;;4965664;28;20027;-85
2021/08/13 06:10:19;;;;;;;1.77;1.67;;;21.10;99.90;;;;;;4952464;28;20054;-85
2021/08/13 06:12:45;;;;;;;2.22;1.35;;;21.20;99.90;;;;;;4949765;28;20054;-85
2021/08/13 06:15:12;;;;;;;2.47;1.33;;;21.30;99.90;;;;;;4959499;28;20074;-85
2021/08/13 06:17:38;;;;;;;4.97;1.02;;;21.20;99.90;;;;;;4961351;28;20103;-83
2021/08/13 06:20:05;;;;;;;2.30;1.98;;;21.20;99.90;;;;;;4951713;28;20067;-85
2021/08/13 06:22:30;;;;;;;1.55;0.88;;;21.30;99.90;;;;;;4967226;28;20053;-84
2021/08/13 06:24:56;;;;;;;0.73;0.63;;;21.10;99.90;;;;;;4965549;28;20053;-85
2021/08/13 06:27:22;;;;;;;1.43;1.33;;;20.90;99.90;;;;;;4956470;28;20019;-85
2021/08/13 06:29:47;;;;;;;2.00;0.88;;;20.90;99.90;;;;;;4960361;28;20425;-85
2021/08/13 06:32:13;;;;;;;1.33;1.27;;;20.80;99.90;;;;;;4965271;28;20050;-84
2021/08/13 06:34:39;;;;;;;1.60;1.10;;;20.70;1.00;;;;;;4965600;28;20065;-85
2021/08/13 06:37:04;;;;;;;0.77;0.57;;;20.80;1.00;;;;;;4950333;28;20783;-84
2021/08/13 06:39:30;;;;;;;1.57;1.47;;;21.00;1.00;;;;;;4950748;28;20514;-84
2021/08/13 06:41:56;;;;;;;3.83;0.93;;;21.00;1.00;;;;;;4951522;28;20027;-85
2021/08/13 06:44:21;;;;;;;1.43;0.87;;;21.10;99.90;;;;;;4949869;28;20162;-86
2021/08/13 06:46:47;;;;;;;3.73;0.77;;;21.30;99.90;;;;;;4956346;28;20039;-86
2021/08/13 06:49:13;;;;;;;0.87;0.87;;;21.30;99.90;;;;;;4952350;28;20576;-85
2021/08/13 06:51:38;;;;;;;1.20;1.10;;;21.10;33.80;;;;;;4955071;28;20035;-87
2021/08/13 06:54:04;;;;;;;1.23;0.63;;;21.00;99.90;;;;;;4957374;28;20839;-86
2021/08/13 06:56:29;;;;;;;0.83;0.83;;;21.00;99.90;;;;;;4951766;28;20556;-86
2021/08/13 06:58:56;;;;;;;0.57;0.40;;;21.20;1.00;;;;;;4946839;28;20034;-87
2021/08/13 07:01:22;;;;;;;3.17;0.90;;;21.30;99.90;;;;;;4958986;28;20062;-92
2021/08/13 07:03:48;;;;;;;3.45;1.73;;;21.30;99.90;;;;;;4967150;28;20070;-95
2021/08/13 07:06:14;;;;;;;1.17;1.00;;;21.30;99.90;;;;;;4967537;28;20031;-95
2021/08/13 07:08:40;;;;;;;2.10;0.57;;;21.20;99.90;;;;;;4967163;28;20039;-95
2021/08/13 07:11:05;;;;;;;5.13;0.77;;;21.20;99.90;;;;;;4968776;28;20050;-94
2021/08/13 07:13:31;;;;;;;1.00;0.63;;;21.20;99.90;;;;;;4970460;28;20397;-94
2021/08/13 07:15:57;;;;;;;1.95;0.82;;;21.40;99.90;;;;;;4969294;28;20035;-95
2021/08/13 07:18:23;;;;;;;1.87;0.83;;;21.30;99.90;;;;;;4967738;28;20051;-95
2021/08/13 07:20:48;;;;;;;0.20;0.20;;;21.30;99.90;;;;;;4968716;28;20161;-95
2021/08/13 07:23:14;;;;;;;5.75;1.30;;;21.30;99.90;;;;;;4971855;28;20133;-94
2021/08/13 07:25:40;;;;;;;3.63;1.90;;;21.30;99.90;;;;;;4972787;28;20038;-96
2021/08/13 07:28:06;;;;;;;0.50;0.50;;;21.30;99.90;;;;;;4971219;28;20125;-95
2021/08/13 07:30:31;;;;;;;0.47;0.47;;;21.40;99.90;;;;;;4970484;28;20601;-95
2021/08/13 07:32:57;;;;;;;1.13;0.80;;;21.40;99.90;;;;;;4959987;28;20287;-96
2021/08/13 07:35:23;;;;;;;1.67;1.57;;;21.30;99.90;;;;;;4959315;28;20073;-95
2021/08/13 07:37:48;;;;;;;0.43;0.43;;;21.30;99.90;;;;;;4968800;28;20130;-94
2021/08/13 07:40:14;;;;;;;1.17;1.17;;;21.30;99.90;;;;;;4953623;28;20478;-95
2021/08/13 07:42:41;;;;;;;1.40;1.17;;;21.40;99.90;;;;;;4969556;28;20541;-95
2021/08/13 07:45:07;;;;;;;0.80;0.77;;;21.40;99.90;;;;;;4961958;28;20086;-95
2021/08/13 07:47:33;;;;;;;;;;;21.40;99.90;;;;;;4959776;28;20031;-95
2021/08/13 07:49:59;;;;;;;0.52;0.52;;;21.40;99.90;;;;;;4968700;28;19921;-95
2021/08/13 07:52:25;;;;;;;0.30;0.30;;;21.60;99.90;;;;;;4951309;29;20520;-95
2021/08/13 07:54:50;;;;;;;0.50;0.50;;;21.70;99.90;;;;;;4967718;28;20039;-94
2021/08/13 07:57:17;;;;;;;0.47;0.23;;;21.80;99.90;;;;;;4961902;28;20035;-94
2021/08/13 07:59:43;;;;;;;0.17;0.17;;;22.00;99.90;;;;;;4956753;28;20035;-96
2021/08/13 08:02:09;;;;;;;2.22;1.15;;;22.30;99.90;;;;;;4967092;28;20525;-96
2021/08/13 08:04:34;;;;;;;0.30;0.30;;;22.40;99.90;;;;;;4951467;28;20035;-96
2021/08/13 08:07:00;;;;;;;0.73;0.53;;;22.40;99.90;;;;;;4970007;28;20039;-95
2021/08/13 08:09:26;;;;;;;0.50;0.43;;;22.60;99.90;;;;;;4969342;28;20082;-95
2021/08/13 08:11:53;;;;;;;0.25;0.25;;;22.60;99.90;;;;;;4959615;28;20027;-96
2021/08/13 08:14:19;;;;;;;1.20;1.08;;;22.70;99.90;;;;;;4950448;28;20565;-94
2021/08/13 08:16:45;;;;;;;0.60;0.60;;;22.70;99.90;;;;;;4950474;28;20038;-96
2021/08/13 08:19:11;;;;;;;0.25;0.25;;;22.80;99.90;;;;;;4967026;28;20031;-95
2021/08/13 08:21:37;;;;;;;0.40;0.40;;;23.10;99.90;;;;;;4953091;28;20039;-96
2021/08/13 08:24:03;;;;;;;1.02;0.98;;;23.30;99.90;;;;;;4966330;28;20552;-95
2021/08/13 08:26:29;;;;;;;2.05;1.23;;;23.50;99.90;;;;;;4963517;28;20043;-96
2021/08/13 08:28:54;;;;;;;0.83;0.30;;;23.40;99.90;;;;;;4952592;28;20130;-95
2021/08/13 08:31:20;;;;;;;0.23;0.20;;;23.30;99.90;;;;;;4970864;28;20038;-95
2021/08/13 08:33:46;;;;;;;1.13;1.00;;;23.20;99.90;;;;;;4968941;28;20383;-96
2021/08/13 08:36:12;;;;;;;0.50;0.50;;;23.20;99.90;;;;;;4968402;28;20149;-96
2021/08/13 08:38:37;;;;;;;0.47;0.47;;;23.10;1.00;;;;;;4964282;28;20760;-96
2021/08/13 08:41:05;;;;;;;0.60;0.60;;;23.00;99.90;;;;;;4968393;28;20030;-96
2021/08/13 08:43:30;;;;;;;1.85;1.10;;;23.00;99.90;;;;;;4954230;28;20031;-96
2021/08/13 08:45:58;;;;;;;1.60;0.43;;;23.20;99.90;;;;;;4952546;28;20098;-94
2021/08/13 08:48:25;;;;;;;0.45;0.45;;;23.20;99.90;;;;;;4967019;28;20026;-94
2021/08/13 08:50:51;;;;;;;1.55;0.73;;;23.20;99.90;;;;;;4969684;28;20882;-95
2021/08/13 08:53:23;;;;;;;0.43;0.43;;;23.10;99.90;;;;;;4964259;28;20058;-96
2021/08/13 08:55:50;;;;;;;0.40;0.40;;;23.30;99.90;;;;;;4951173;28;20102;-95
2021/08/13 08:58:20;;;;;;;0.95;0.95;;;23.40;99.90;;;;;;4969197;28;20532;-94
2021/08/13 09:00:47;;;;;;;1.33;1.15;;;23.40;99.90;;;;;;4955679;28;20055;-95
2021/08/13 09:03:14;;;;;;;0.70;0.70;;;23.20;99.90;;;;;;4959750;28;20032;-95
2021/08/13 09:05:40;;;;;;;2.08;0.45;;;23.10;99.90;;;;;;4951845;28;20050;-95
2021/08/13 09:08:06;;;;;;;2.90;0.83;;;23.20;99.90;;;;;;4968576;28;20069;-95
2021/08/13 09:10:31;;;;;;;0.40;0.35;;;23.30;99.90;;;;;;4973631;28;20163;-95
2021/08/13 09:13:03;;;;;;;0.95;0.25;;;23.30;99.90;;;;;;4962207;28;20040;-94
2021/08/13 09:15:38;;;;;;;0.80;0.68;;;23.30;99.90;;;;;;4964592;28;20031;-95
2021/08/13 09:18:24;;;;;;;0.30;0.30;;;23.40;99.90;;;;;;4966619;28;20054;-94
2021/08/13 09:20:51;;;;;;;;;;;23.20;99.90;;;;;;4971665;28;20085;-95
2021/08/13 09:23:29;;;;;;;2.40;0.88;;;23.30;99.90;;;;;;4967887;28;19918;-94
2021/08/13 09:25:57;;;;;;;1.13;0.55;;;23.20;99.90;;;;;;4972361;28;20502;-96
2021/08/13 09:28:47;;;;;;;1.17;1.10;;;23.30;99.90;;;;;;4967496;28;20082;-95
2021/08/13 09:31:24;;;;;;;1.27;0.35;;;23.50;99.90;;;;;;4965638;28;20118;-94
2021/08/13 09:33:52;;;;;;;4.45;1.00;;;23.60;99.90;;;;;;4964491;28;20031;-96
2021/08/13 09:36:23;;;;;;;0.30;0.28;;;23.50;99.90;;;;;;4966498;28;20490;-94
2021/08/13 09:39:04;;;;;;;1.65;0.85;;;24.00;99.90;;;;;;4960888;28;20033;-95
2021/08/13 09:41:29;;;;;;;0.85;0.77;;;24.90;99.90;;;;;;4969404;28;20442;-95
2021/08/13 09:43:59;;;;;;;0.00;0.00;;;25.00;99.90;;;;;;4958775;28;20042;-95
2021/08/13 09:46:26;;;;;;;2.08;1.05;;;25.30;99.90;;;;;;4965269;28;20294;-95
2021/08/13 09:48:52;;;;;;;1.10;0.90;;;25.40;99.90;;;;;;4965364;28;20146;-95
2021/08/13 09:51:28;;;;;;;0.60;0.60;;;25.30;99.90;;;;;;4967093;28;20046;-93
2021/08/13 09:54:03;;;;;;;1.23;0.98;;;24.90;99.90;;;;;;4969315;28;20581;-95
2021/08/13 09:56:30;;;;;;;1.40;0.93;;;24.60;99.90;;;;;;4964196;28;20030;-94
2021/08/13 09:59:23;;;;;;;0.30;0.30;;;24.10;99.90;;;;;;4957354;28;20039;-95
2021/08/13 10:01:52;;;;;;;0.30;0.30;;;24.40;99.90;;;;;;4959039;28;20039;-95
2021/08/13 10:04:32;;;;;;;0.35;0.35;;;24.80;99.90;;;;;;4974449;28;20077;-96
2021/08/13 10:06:58;;;;;;;1.25;0.60;;;24.80;99.90;;;;;;4972255;28;20489;-93
2021/08/13 10:09:28;;;;;;;0.05;0.05;;;25.30;99.90;;;;;;4972939;28;20027;-92
2021/08/13 10:12:05;;;;;;;0.73;0.73;;;25.30;99.90;;;;;;4965887;28;20108;-95
2021/08/13 10:14:42;;;;;;;0.52;0.52;;;25.00;99.90;;;;;;4959543;28;20568;-95
2021/08/13 10:17:11;;;;;;;7.47;0.60;;;24.60;99.90;;;;;;4961815;28;20027;-94
2021/08/13 10:19:42;;;;;;;1.00;0.75;;;24.50;99.90;;;;;;4972914;28;20041;-96
2021/08/13 10:22:08;;;;;;;0.35;0.35;;;25.10;99.90;;;;;;4967219;28;20035;-95
2021/08/13 10:24:35;;;;;;;0.50;0.50;;;25.70;99.90;;;;;;4974128;28;20069;-96
2021/08/13 10:27:03;;;;;;;1.85;0.98;;;26.70;99.90;;;;;;4967359;28;20049;-95
2021/08/13 10:29:29;;;;;;;1.30;1.00;;;27.80;99.90;;;;;;4968950;28;20026;-96
2021/08/13 10:31:56;;;;;;;1.35;1.08;;;28.00;99.90;;;;;;4966628;28;20043;-94
2021/08/13 10:34:22;;;;;;;0.85;0.73;;;28.20;99.90;;;;;;4960436;28;20031;-95
2021/08/13 10:36:49;;;;;;;1.85;0.73;;;28.50;99.90;;;;;;4965225;28;20035;-95
2021/08/13 10:39:20;;;;;;;0.20;0.20;;;29.10;99.90;;;;;;4971263;28;20126;-95
2021/08/13 10:41:53;;;;;;;1.65;0.65;;;30.10;99.90;;;;;;4959978;28;20239;-95
2021/08/13 10:44:24;;;;;;;0.85;0.52;;;29.80;99.90;;;;;;4962360;28;20497;-96
2021/08/13 10:46:52;;;;;;;0.50;0.50;;;29.80;99.90;;;;;;4958484;28;20067;-95
2021/08/13 10:49:20;;;;;;;0.38;0.20;;;29.70;99.90;;;;;;4967376;28;20031;-95
2021/08/13 10:52:03;;;;;;;0.85;0.22;;;30.00;99.90;;;;;;4970055;28;20030;-94
2021/08/13 10:54:43;;;;;;;0.85;0.77;;;30.70;99.90;;;;;;4969882;28;20470;-95
2021/08/13 10:57:10;;;;;;;0.57;0.55;;;30.80;99.90;;;;;;4970184;28;20126;-94
2021/08/13 10:59:43;;;;;;;0.30;0.30;;;30.20;99.90;;;;;;4972307;28;20042;-95
2021/08/13 11:02:21;;;;;;;0.75;0.50;;;30.90;99.90;;;;;;4968369;28;20043;-95
2021/08/13 11:04:49;;;;;;;0.10;0.10;;;31.10;99.90;;;;;;4971268;28;20026;-95
2021/08/13 11:07:53;;;;;;;1.67;0.75;;;30.50;99.90;;;;;;4974490;28;20029;-94
2021/08/13 11:10:37;;;;;;;5.17;1.50;;;31.20;99.90;;;;;;4974314;28;20031;-95
2021/08/13 11:13:14;;;;;;;0.85;0.70;;;31.50;99.90;;;;;;4970830;28;20069;-94
2021/08/13 11:15:40;;;;;;;0.85;0.65;;;30.70;99.90;;;;;;4965083;28;20026;-95
2021/08/13 11:18:37;;;;;;;0.52;0.52;;;30.00;99.90;;;;;;4967628;28;20031;-95
2021/08/13 11:21:05;;;;;;;1.25;1.15;;;29.90;99.90;;;;;;4963381;28;20045;-96
2021/08/13 11:23:32;;;;;;;1.02;0.25;;;29.30;99.90;;;;;;4973062;28;20052;-95
2021/08/13 11:25:57;;;;;;;0.28;0.20;;;29.00;99.90;;;;;;4964745;28;20042;-95
2021/08/13 11:28:30;;;;;;;1.33;1.23;;;29.20;99.90;;;;;;4973645;28;20023;-95
2021/08/13 11:31:00;;;;;;;0.95;0.55;;;29.30;99.90;;;;;;4968749;28;20133;-95
2021/08/13 11:33:26;;;;;;;0.32;0.32;;;29.50;99.90;;;;;;4966158;28;20035;-95
2021/08/13 11:35:58;;;;;;;1.42;0.65;;;29.50;99.70;;;;;;4970686;28;20053;-95
2021/08/13 11:38:42;;;;;;;0.47;0.35;;;29.70;99.90;;;;;;4967620;28;20039;-95
2021/08/13 11:41:20;;;;;;;2.20;0.65;;;29.80;99.70;;;;;;4970091;28;20055;-95
2021/08/13 11:43:51;;;;;;;0.50;0.50;;;30.30;99.70;;;;;;4970558;28;20113;-96
2021/08/13 11:46:34;;;;;;;0.65;0.65;;;30.40;98.90;;;;;;4971324;28;20482;-94
2021/08/13 11:49:02;;;;;;;1.67;0.65;;;30.20;98.70;;;;;;4971742;28;20130;-94
2021/08/13 11:51:28;;;;;;;3.10;1.23;;;30.50;98.30;;;;;;4965554;28;20409;-94
2021/08/13 11:53:55;;;;;;;0.45;0.30;;;29.80;99.70;;;;;;4968659;28;20027;-94
2021/08/13 11:56:27;;;;;;;1.02;0.60;;;30.40;99.50;;;;;;4962248;28;20058;-93
2021/08/13 11:59:06;;;;;;;0.63;0.63;;;29.90;99.70;;;;;;4959248;28;20129;-94
2021/08/13 12:01:53;;;;;;;0.30;0.30;;;29.70;99.60;;;;;;4955229;28;20746;-93
2021/08/13 12:04:23;;;;;;;0.52;0.30;;;29.20;99.70;;;;;;4955188;28;20894;-94
2021/08/13 12:06:59;;;;;;;1.95;0.65;;;29.30;98.50;;;;;;4965470;28;20039;-93
2021/08/13 12:09:30;;;;;;;1.40;0.28;;;30.20;99.90;;;;;;4961339;28;20023;-94
2021/08/13 12:11:55;;;;;;;0.77;0.75;;;30.90;98.00;;;;;;4966448;28;20043;-94
2021/08/13 12:14:21;;;;;;;0.30;0.28;;;30.60;97.10;;;;;;4958368;28;20039;-95
2021/08/13 12:16:55;;;;;;;0.50;0.50;;;30.00;97.40;;;;;;4961460;28;20035;-94
2021/08/13 12:19:22;;;;;;;0.98;0.98;;;29.20;98.50;;;;;;4962010;28;20710;-95
2021/08/13 12:21:59;;;;;;;0.30;0.30;;;29.40;98.70;;;;;;4968407;28;20033;-94
2021/08/13 12:24:31;;;;;;;2.10;0.40;;;29.60;98.60;;;;;;4966693;28;20031;-94
2021/08/13 12:26:59;;;;;;;8.45;1.10;;;29.40;98.20;;;;;;4971495;28;20117;-95
2021/08/13 12:29:26;;;;;;;0.38;0.38;;;29.10;99.50;;;;;;4967510;28;20683;-95
2021/08/13 12:31:54;;;;;;;0.32;0.32;;;29.50;99.50;;;;;;4961255;28;20442;-94
2021/08/13 12:34:21;;;;;;;2.53;0.65;;;29.50;98.20;;;;;;4963307;28;20102;-94
2021/08/13 12:36:58;;;;;;;0.45;0.43;;;29.30;99.10;;;;;;4966310;28;20485;-94
2021/08/13 12:39:24;;;;;;;0.30;0.30;;;28.90;99.90;;;;;;4967410;28;20462;-94
2021/08/13 12:41:49;;;;;;;0.52;0.50;;;28.20;99.90;;;;;;4964759;28;20109;-95
2021/08/13 12:44:15;;;;;;;0.20;0.20;;;27.80;99.90;;;;;;4962044;28;20050;-94
2021/08/13 12:46:43;;;;;;;0.65;0.65;;;27.50;99.90;;;;;;4964147;28;20409;-94
2021/08/13 12:49:09;;;;;;;0.47;0.47;;;27.90;99.90;;;;;;4968161;28;20035;-93
2021/08/13 12:51:35;;;;;;;1.42;1.30;;;28.00;99.90;;;;;;4967675;28;20087;-93
2021/08/13 12:54:01;;;;;;;0.40;0.40;;;28.10;99.90;;;;;;4956796;28;20043;-94